Portada
METAR-TAF:

METAR-TAF

Aeroports :

Harbin, Xina

latitud: 45-45N, longitud: 126-46E, altitud: 143 m

Observació

L'informe es va fer fa 55 minuts, a les 03:00 UTC
Vent 14 kt del Sud/Sud-Oest
Temperatura 9°C
Humitat 29%
Pressió 1025 hPa
Visibilitat 10 km o més
sense núvols per sota de 1500 mi sense presència de cumulonimbus.

METAR: ZYHB 150300Z 21007MPS CAVOK 09/M08 Q1025 NOSIG

Hora: 11:55 (03:55 UTC)

Pronòstic

L'informe es va fer fa 8 hores i 38 minuts, a les 19:17 UTC
Pronòstic vàlid del 15 a les 00 UTC al 15 a les 24 UTC
Vent 16 kt del Sud-Oest amb ràfegues de 27 kt
Visibilitat: 6000 m
Escasses núvols a una alçada de 3300 ft

TAF: ZYHB 141917Z 1500/1524 23008G14MPS 6000 FEW033 TX13/1506Z TN01/1521Z

Observacions i pronòstics meteorològics de més de 4000 aeroports (METAR i TAF).

Les estacions disponibles són els punts grocs i vermells al mapa.

Posi el ratolí al punt desitjat per veure el nom de l'estació.

Feu clic per veure les observacions i els pronòstics meteorològics.

Per canviar el mapa: feu clic els botons verds amb una creu de color negre per apropar; al botó verd amb un guió per allunyar la imatge; o en les fletxes verdes per a mapes adjacents.


METAR-TAF: